Time;durP1;ratioP1;P1;durP2;ratioP2;P2;SDS_P1;SDS_P2;PMS_P1;PMS_P2;Temp;Humidity;BMP_temperature;BMP_pressure;BME280_temperature;BME280_humidity;BME280_pressure;Samples;Min_cycle;Max_cycle;Signal;HPM_P1;HPM_P2
2023/04/02 00:01:00;;;;;;;3.37;2.10;;;;;;;7.53;100.00;97731.25;4485257;32;20491;-66
2023/04/02 00:03:58;;;;;;;4.37;2.00;;;;;;;7.51;100.00;97727.16;4484614;31;20586;-66
2023/04/02 00:06:32;;;;;;;6.45;2.62;;;;;;;7.56;100.00;97730.16;4481545;32;20114;-66
2023/04/02 00:09:21;;;;;;;4.72;1.70;;;;;;;7.61;100.00;97728.75;4485168;31;20156;-66
2023/04/02 00:11:53;;;;;;;2.62;1.67;;;;;;;7.62;100.00;97730.41;4412317;32;20130;-66
2023/04/02 00:14:29;;;;;;;3.00;1.70;;;;;;;7.67;100.00;97732.56;4411401;32;20719;-66
2023/04/02 00:16:59;;;;;;;2.40;1.50;;;;;;;7.68;100.00;97736.03;4420548;32;20499;-66
2023/04/02 00:19:29;;;;;;;2.42;1.45;;;;;;;7.64;100.00;97725.88;4407827;32;20106;-66
2023/04/02 00:21:57;;;;;;;3.90;2.17;;;;;;;7.51;100.00;97728.00;4420415;32;20174;-66
2023/04/02 00:24:25;;;;;;;3.03;1.95;;;;;;;7.57;100.00;97732.63;4420409;32;20085;-66
2023/04/02 00:26:53;;;;;;;3.28;1.90;;;;;;;7.56;100.00;97728.38;4420366;32;20153;-66
2023/04/02 00:29:20;;;;;;;3.35;2.08;;;;;;;7.60;100.00;97734.94;4407684;32;20144;-66
2023/04/02 00:31:52;;;;;;;3.60;2.30;;;;;;;7.55;100.00;97733.72;4420468;32;20110;-66
2023/04/02 00:34:20;;;;;;;4.12;2.30;;;;;;;7.48;100.00;97733.50;4420139;32;20089;-66
2023/04/02 00:36:49;;;;;;;3.10;1.77;;;;;;;7.47;100.00;97731.84;4420452;32;20143;-66
2023/04/02 00:39:23;;;;;;;4.47;2.28;;;;;;;7.54;100.00;97734.69;4420150;32;20152;-66
2023/04/02 00:42:03;;;;;;;2.60;1.75;;;;;;;7.51;100.00;97742.78;4407989;32;20170;-66
2023/04/02 00:44:37;;;;;;;2.90;1.77;;;;;;;7.53;100.00;97743.50;4420375;32;20094;-66
2023/04/02 00:47:11;;;;;;;3.92;1.70;;;;;;;7.56;100.00;97751.03;4407852;32;20537;-66
2023/04/02 00:49:39;;;;;;;3.75;1.95;;;;;;;7.52;100.00;97740.03;4458396;32;20161;-66
2023/04/02 00:52:09;;;;;;;2.20;1.65;;;;;;;7.57;100.00;97745.66;4469183;32;20165;-66
2023/04/02 00:54:41;;;;;;;4.85;1.90;;;;;;;7.62;100.00;97738.22;4467734;32;20123;-66
2023/04/02 00:57:16;;;;;;;2.15;1.60;;;;;;;7.66;100.00;97730.13;4467956;32;20551;-66
2023/04/02 01:00:14;;;;;;;2.85;1.62;;;;;;;7.66;100.00;97740.53;4469125;32;20100;-66
2023/04/02 01:02:42;;;;;;;1.77;1.30;;;;;;;7.65;100.00;97726.69;4462067;32;20527;-66
2023/04/02 01:05:16;;;;;;;2.33;1.60;;;;;;;7.62;100.00;97730.41;4467917;32;20092;-66
2023/04/02 01:07:53;;;;;;;2.12;1.60;;;;;;;7.71;100.00;97728.72;4469003;32;20680;-66
2023/04/02 01:10:53;;;;;;;2.37;1.90;;;;;;;7.68;100.00;97734.22;4467597;32;20123;-66
2023/04/02 01:13:52;;;;;;;2.55;1.50;;;;;;;7.76;100.00;97730.88;4435652;32;20105;-66
2023/04/02 01:16:35;;;;;;;4.12;1.67;;;;;;;7.73;100.00;97729.37;4358994;32;20087;-66
2023/04/02 01:19:41;;;;;;;5.03;2.00;;;;;;;7.67;100.00;97731.75;4359652;32;20121;-66
2023/04/02 01:22:22;;;;;;;1.62;1.40;;;;;;;7.62;100.00;97733.00;4359459;32;20111;-66
2023/04/02 01:24:49;;;;;;;2.40;1.73;;;;;;;7.53;100.00;97735.66;4372107;32;20158;-66
2023/04/02 01:27:20;;;;;;;3.03;1.42;;;;;;;7.59;100.00;97735.91;4359674;32;20117;-66
2023/04/02 01:29:56;;;;;;;2.95;1.35;;;;;;;7.59;100.00;97735.91;4359739;32;20231;-66
2023/04/02 01:32:27;;;;;;;2.92;1.65;;;;;;;7.57;100.00;97740.44;4359344;32;20300;-66
2023/04/02 01:34:55;;;;;;;2.00;1.23;;;;;;;7.60;100.00;97729.72;4371741;32;20125;-66
2023/04/02 01:37:26;;;;;;;2.78;1.35;;;;;;;7.58;100.00;97738.66;4359431;32;20107;-66
2023/04/02 01:40:18;;;;;;;4.50;1.42;;;;;;;7.59;100.00;97735.91;4371499;32;20417;-66
2023/04/02 01:42:45;;;;;;;2.60;1.50;;;;;;;7.60;100.00;97727.13;4359440;32;20461;-66
2023/04/02 01:45:15;;;;;;;2.22;1.40;;;;;;;7.56;100.00;97736.19;4359304;32;20604;-66
2023/04/02 01:47:43;;;;;;;3.00;1.60;;;;;;;7.57;100.00;97743.06;4371895;32;20141;-66
2023/04/02 01:50:17;;;;;;;2.92;1.50;;;;;;;7.61;100.00;97733.97;4385327;32;20093;-66
2023/04/02 01:52:47;;;;;;;2.97;1.42;;;;;;;7.57;100.00;97737.00;4433892;32;20113;-66
2023/04/02 01:55:20;;;;;;;1.85;1.45;;;;;;;7.52;100.00;97734.81;4467179;32;20579;-66
2023/04/02 01:57:50;;;;;;;3.72;2.03;;;;;;;7.56;100.00;97744.00;4468416;32;20089;-66
2023/04/02 02:00:18;;;;;;;2.12;1.50;;;;;;;7.58;100.00;97742.06;4468496;32;20080;-66
2023/04/02 02:02:48;;;;;;;2.12;1.58;;;;;;;7.47;100.00;97745.69;4467216;32;20446;-66
2023/04/02 02:05:18;;;;;;;4.78;1.48;;;;;;;7.29;100.00;97753.41;4466615;32;20126;-66
2023/04/02 02:07:46;;;;;;;2.25;1.45;;;;;;;7.24;100.00;97760.84;4454155;32;20382;-66
2023/04/02 02:10:16;;;;;;;1.95;1.40;;;;;;;7.18;100.00;97758.00;4466830;32;20452;-66
2023/04/02 02:12:44;;;;;;;3.60;1.50;;;;;;;7.09;100.00;97759.66;4482499;32;20131;-66
2023/04/02 02:15:15;;;;;;;4.12;1.70;;;;;;;7.07;100.00;97761.56;4482214;32;20095;-66
2023/04/02 02:17:43;;;;;;;1.92;1.10;;;;;;;7.07;100.00;97761.56;4483885;31;20088;-66
2023/04/02 02:20:11;;;;;;;1.67;1.23;;;;;;;7.03;100.00;97758.41;4482073;32;20151;-66
2023/04/02 02:22:44;;;;;;;2.42;1.42;;;;;;;7.00;100.00;97765.69;4483661;31;20417;-66
2023/04/02 02:25:31;;;;;;;2.28;1.67;;;;;;;7.01;100.00;97762.09;4469231;32;20179;-66
2023/04/02 02:28:02;;;;;;;2.60;1.42;;;;;;;7.02;100.00;97758.56;4485784;31;20454;-66
2023/04/02 02:30:32;;;;;;;1.92;1.40;;;;;;;7.05;100.00;97758.28;4485701;31;20092;-66
2023/04/02 02:33:02;;;;;;;1.92;1.27;;;;;;;6.98;100.00;97767.59;4485993;31;20502;-66
2023/04/02 02:35:32;;;;;;;3.05;1.55;;;;;;;6.99;100.00;97772.66;4485789;31;20088;-66
2023/04/02 02:38:33;;;;;;;2.03;1.50;;;;;;;6.98;100.00;97771.03;4486016;31;20154;-66
2023/04/02 02:41:06;;;;;;;2.10;1.10;;;;;;;6.89;100.00;97770.09;4486057;31;20145;-66
2023/04/02 02:43:34;;;;;;;2.45;1.30;;;;;;;6.92;100.00;97775.00;4485779;31;20595;-66
2023/04/02 02:46:03;;;;;;;2.10;1.40;;;;;;;6.85;100.00;97768.72;4485543;31;20152;-66
2023/04/02 02:48:36;;;;;;;3.35;1.48;;;;;;;6.87;100.00;97768.56;4485982;31;20156;-66
2023/04/02 02:51:09;;;;;;;2.60;1.45;;;;;;;6.90;100.00;97771.75;4484598;32;20152;-66
2023/04/02 02:53:45;;;;;;;2.10;1.40;;;;;;;6.90;100.00;97766.53;4485734;31;20085;-66
2023/04/02 02:56:13;;;;;;;3.45;1.37;;;;;;;6.87;100.00;97765.97;4484142;32;20104;-66
2023/04/02 02:58:42;;;;;;;2.65;1.37;;;;;;;6.91;100.00;97759.53;4484704;32;20091;-66
2023/04/02 03:01:10;;;;;;;4.65;1.60;;;;;;;6.91;100.00;97765.56;4485510;31;20441;-66
2023/04/02 03:03:39;;;;;;;1.73;1.23;;;;;;;6.90;100.00;97763.09;4484504;32;20092;-67
2023/04/02 03:06:09;;;;;;;1.70;1.20;;;;;;;6.93;100.00;97765.41;4485692;31;20092;-66
2023/04/02 03:08:40;;;;;;;1.02;0.90;;;;;;;6.90;100.00;97763.09;4484345;32;20111;-66
2023/04/02 03:11:14;;;;;;;2.17;1.15;;;;;;;6.96;100.00;97767.75;4485618;31;20115;-66
2023/04/02 03:13:46;;;;;;;1.67;1.30;;;;;;;6.91;100.00;97768.16;4484730;32;20174;-66
2023/04/02 03:16:14;;;;;;;1.40;1.17;;;;;;;6.88;100.00;97767.63;4484277;32;20112;-66
2023/04/02 03:19:00;;;;;;;1.67;1.30;;;;;;;6.87;100.00;97764.22;4485669;31;20123;-67
2023/04/02 03:21:50;;;;;;;7.40;1.52;;;;;;;6.83;100.00;97764.59;4485391;31;20085;-66
2023/04/02 03:24:31;;;;;;;2.28;1.35;;;;;;;6.83;100.00;97768.03;4485578;32;20136;-66
2023/04/02 03:27:06;;;;;;;1.80;1.20;;;;;;;6.81;100.00;97766.53;4484072;32;20088;-66
2023/04/02 03:29:36;;;;;;;2.62;1.65;;;;;;;6.79;100.00;97769.25;4484438;32;20092;-66
2023/04/02 03:32:06;;;;;;;2.15;1.60;;;;;;;6.74;100.00;97771.47;4471367;32;20096;-66
2023/04/02 03:34:48;;;;;;;1.67;1.20;;;;;;;6.70;100.00;97768.31;4484191;32;20108;-66
2023/04/02 03:37:21;;;;;;;3.62;1.58;;;;;;;6.68;100.00;97772.03;4483697;32;20139;-66
2023/04/02 03:39:57;;;;;;;2.30;1.20;;;;;;;6.63;100.00;97777.63;4484283;32;20111;-67
2023/04/02 03:42:27;;;;;;;2.37;1.45;;;;;;;6.59;100.00;97778.06;4484344;32;20099;-66
2023/04/02 03:45:02;;;;;;;4.07;1.58;;;;;;;6.56;100.00;97784.34;4484500;32;20108;-66
2023/04/02 03:47:44;;;;;;;2.42;1.50;;;;;;;6.59;100.00;97783.25;4484267;32;20093;-66
2023/04/02 03:50:17;;;;;;;1.87;1.20;;;;;;;6.62;100.00;97785.59;4485556;31;20531;-66
2023/04/02 03:52:46;;;;;;;2.45;1.40;;;;;;;6.63;100.00;97789.81;4483918;32;20092;-66
2023/04/02 03:55:17;;;;;;;2.17;1.42;;;;;;;6.66;100.00;97795.59;4483904;32;20196;-67
2023/04/02 03:57:51;;;;;;;3.17;1.30;;;;;;;6.76;100.00;97795.56;4484308;32;20095;-66
2023/04/02 04:00:31;;;;;;;2.15;1.65;;;;;;;6.71;100.00;97800.38;4484354;32;20446;-66
2023/04/02 04:03:08;;;;;;;2.10;1.20;;;;;;;6.62;100.00;97791.59;4485289;31;20107;-66
2023/04/02 04:05:42;;;;;;;2.40;1.45;;;;;;;6.68;100.00;97792.84;4484111;32;20108;-67
2023/04/02 04:08:16;;;;;;;1.80;1.33;;;;;;;6.59;100.00;97801.47;4485050;31;20134;-66
2023/04/02 04:10:44;;;;;;;1.85;1.40;;;;;;;6.65;100.00;97806.13;4483821;32;20089;-67
2023/04/02 04:13:15;;;;;;;2.28;1.48;;;;;;;6.67;100.00;97806.81;4484342;32;20081;-67
2023/04/02 04:15:51;;;;;;;2.37;1.58;;;;;;;6.75;100.00;97810.38;4484012;32;20158;-67
2023/04/02 04:18:33;;;;;;;3.25;1.50;;;;;;;6.73;100.00;97812.28;4483836;32;20112;-67
2023/04/02 04:21:15;;;;;;;1.55;1.27;;;;;;;6.79;100.00;97813.50;4483933;32;20095;-66
2023/04/02 04:23:49;;;;;;;2.60;1.50;;;;;;;6.74;100.00;97818.31;4484235;32;20506;-67
2023/04/02 04:26:35;;;;;;;3.22;1.70;;;;;;;6.73;100.00;97816.66;4484024;32;20092;-67
2023/04/02 04:29:33;;;;;;;1.98;1.73;;;;;;;6.69;100.00;97810.94;4483911;32;20446;-66
2023/04/02 04:32:26;;;;;;;2.40;1.67;;;;;;;6.66;100.00;97826.81;4485394;31;20084;-66
2023/04/02 04:34:59;;;;;;;1.48;1.25;;;;;;;6.70;100.00;97817.75;4484144;32;20077;-67
2023/04/02 04:37:34;;;;;;;2.45;1.45;;;;;;;6.81;100.00;97829.00;4485157;31;20093;-66
2023/04/02 04:40:10;;;;;;;1.60;1.35;;;;;;;6.91;100.00;97830.63;4483986;32;20155;-66
2023/04/02 04:42:40;;;;;;;2.37;1.65;;;;;;;7.06;100.00;97832.84;4483876;32;20155;-66
2023/04/02 04:45:29;;;;;;;2.60;1.75;;;;;;;7.17;100.00;97835.28;4484985;31;20492;-66
2023/04/02 04:48:00;;;;;;;1.75;1.45;;;;;;;7.23;100.00;97839.94;4484776;31;20430;-66
2023/04/02 04:50:32;;;;;;;1.95;1.30;;;;;;;7.33;100.00;97839.09;4483830;31;20088;-66
2023/04/02 04:53:07;;;;;;;1.40;1.20;;;;;;;7.39;100.00;97835.97;4483598;32;20092;-66
2023/04/02 04:55:42;;;;;;;1.95;1.45;;;;;;;7.51;100.00;97839.22;4483429;32;20157;-66
2023/04/02 04:58:15;;;;;;;1.65;1.20;;;;;;;7.68;100.00;97838.50;4485020;31;20157;-66
2023/04/02 05:01:06;;;;;;;1.95;1.50;;;;;;;7.79;100.00;97846.13;4485075;31;20160;-66
2023/04/02 05:03:36;;;;;;;2.12;1.67;;;;;;;7.87;100.00;97845.41;4484763;31;20088;-66
2023/04/02 05:06:22;;;;;;;1.65;1.33;;;;;;;7.92;100.00;97840.62;4483608;32;20522;-66
2023/04/02 05:08:51;;;;;;;1.40;1.17;;;;;;;8.04;100.00;97853.47;4484899;31;20164;-66
2023/04/02 05:11:30;;;;;;;2.03;1.40;;;;;;;8.06;100.00;97848.94;4484786;31;20157;-66
2023/04/02 05:14:22;;;;;;;2.05;1.52;;;;;;;8.15;100.00;97853.28;4483326;32;20088;-67
2023/04/02 05:16:58;;;;;;;2.30;1.77;;;;;;;8.20;100.00;97847.62;4483179;32;20103;-66
2023/04/02 05:19:49;;;;;;;3.40;1.70;;;;;;;8.34;100.00;97847.12;4483469;32;20165;-66
2023/04/02 05:22:53;;;;;;;2.10;1.58;;;;;;;8.41;100.00;97844.78;4484235;31;20126;-66
2023/04/02 05:25:27;;;;;;;1.30;1.20;;;;;;;8.40;100.00;97849.16;4435598;32;20559;-67
2023/04/02 05:28:20;;;;;;;1.77;1.50;;;;;;;8.38;100.00;97848.50;4435585;32;20073;-67
2023/04/02 05:31:01;;;;;;;2.22;1.50;;;;;;;8.38;100.00;97851.09;4422898;32;20105;-66
2023/04/02 05:33:32;;;;;;;1.70;1.42;;;;;;;8.29;100.00;97851.97;4422736;32;20149;-66
2023/04/02 05:36:03;;;;;;;1.60;1.33;;;;;;;8.25;100.00;97842.78;4422618;32;20105;-66
2023/04/02 05:38:34;;;;;;;2.22;1.40;;;;;;;8.27;100.00;97839.09;4435333;32;20109;-66
2023/04/02 05:41:23;;;;;;;1.92;1.60;;;;;;;8.23;100.00;97850.75;4434935;32;20115;-67
2023/04/02 05:43:55;;;;;;;1.70;1.52;;;;;;;8.42;100.00;97847.25;4435411;32;20121;-67
2023/04/02 05:46:26;;;;;;;1.85;1.40;;;;;;;8.78;100.00;97862.16;4422612;32;20133;-67
2023/04/02 05:48:56;;;;;;;2.20;1.95;;;;;;;8.93;100.00;97855.44;4422570;32;20611;-67
2023/04/02 05:51:45;;;;;;;2.75;1.85;;;;;;;9.09;100.00;97856.59;4422428;32;20176;-67
2023/04/02 05:54:26;;;;;;;1.80;1.40;;;;;;;9.31;100.00;97861.34;4434852;32;20139;-67
2023/04/02 05:56:59;;;;;;;1.80;1.40;;;;;;;9.31;100.00;97866.56;4435103;32;20116;-66
2023/04/02 05:59:32;;;;;;;;;;;;;;;9.33;100.00;97867.22;4453638;32;20088;-67
2023/04/02 06:02:22;;;;;;;2.80;1.80;;;;;;;9.35;100.00;97870.50;4485743;31;19980;-67
2023/04/02 06:05:00;;;;;;;3.60;1.73;;;;;;;9.46;100.00;97872.03;4486261;32;20106;-67
2023/04/02 06:07:32;;;;;;;1.87;1.42;;;;;;;9.43;100.00;97872.34;4486312;31;20096;-67
2023/04/02 06:10:02;;;;;;;2.15;1.37;;;;;;;9.47;100.00;97873.69;4485014;32;20340;-67
2023/04/02 06:12:42;;;;;;;2.37;1.70;;;;;;;9.56;100.00;97871.97;4485993;31;20362;-67
2023/04/02 06:15:13;;;;;;;3.15;1.73;;;;;;;9.76;100.00;97877.81;4486267;31;20100;-66
2023/04/02 06:17:47;;;;;;;2.78;1.73;;;;;;;9.76;100.00;97883.88;4486167;31;20171;-66
2023/04/02 06:20:17;;;;;;;1.95;1.60;;;;;;;9.82;100.00;97881.63;4486158;31;20080;-66
2023/04/02 06:22:47;;;;;;;1.85;1.30;;;;;;;9.83;100.00;97888.50;4484695;32;20149;-66
2023/04/02 06:25:18;;;;;;;2.22;1.70;;;;;;;9.90;100.00;97881.66;4484745;32;20156;-66
2023/04/02 06:27:48;;;;;;;2.03;1.40;;;;;;;9.82;100.00;97886.84;4486112;31;20096;-66
2023/04/02 06:30:22;;;;;;;2.00;1.30;;;;;;;9.98;100.00;97891.34;4484842;32;20569;-67
2023/04/02 06:32:50;;;;;;;3.42;1.60;;;;;;;10.11;100.00;97900.44;4484641;32;20162;-67
2023/04/02 06:35:18;;;;;;;1.50;1.30;;;;;;;10.34;100.00;97899.09;4486023;31;20120;-67
2023/04/02 06:37:47;;;;;;;1.73;1.35;;;;;;;10.28;100.00;97905.75;4485993;31;20077;-67
2023/04/02 06:40:40;;;;;;;2.08;1.55;;;;;;;10.12;100.00;97903.88;4486088;31;20536;-67
2023/04/02 06:43:16;;;;;;;2.50;1.40;;;;;;;10.44;100.00;97907.66;4486083;31;20150;-67
2023/04/02 06:45:48;;;;;;;1.55;1.30;;;;;;;10.45;100.00;97910.09;4485896;31;20080;-67
2023/04/02 06:48:18;;;;;;;1.75;1.50;;;;;;;10.36;100.00;97910.25;4484343;32;20096;-66
2023/04/02 06:50:56;;;;;;;2.40;1.52;;;;;;;10.47;100.00;97910.75;4484339;32;20119;-66
2023/04/02 06:53:32;;;;;;;2.25;1.62;;;;;;;10.54;100.00;97918.00;4471273;32;20127;-66
2023/04/02 06:56:05;;;;;;;1.90;1.70;;;;;;;10.74;100.00;97908.91;4484597;32;20108;-66
2023/04/02 06:58:33;;;;;;;;;;;;;;;10.94;100.00;97917.28;4484801;32;20360;-66
2023/04/02 07:01:02;;;;;;;1.50;1.23;;;;;;;10.97;100.00;97916.16;4484928;32;19975;-66
2023/04/02 07:03:31;;;;;;;1.62;1.37;;;;;;;11.05;100.00;97915.34;4485629;31;20085;-66
2023/04/02 07:06:01;;;;;;;1.83;1.35;;;;;;;11.23;100.00;97915.22;4484647;32;20119;-66
2023/04/02 07:08:28;;;;;;;1.80;1.30;;;;;;;11.34;100.00;97913.09;4484327;32;20088;-66
2023/04/02 07:10:56;;;;;;;2.78;1.60;;;;;;;11.28;100.00;97920.78;4485625;31;20122;-66
2023/04/02 07:13:25;;;;;;;2.25;1.30;;;;;;;11.37;100.00;97919.84;4484557;32;20149;-66
2023/04/02 07:15:54;;;;;;;1.52;1.37;;;;;;;11.29;100.00;97928.47;4485608;32;20525;-66
2023/04/02 07:18:32;;;;;;;2.03;1.50;;;;;;;11.38;100.00;97923.25;4485364;32;20691;-67
2023/04/02 07:21:00;;;;;;;3.40;1.45;;;;;;;11.37;100.00;97930.31;4485615;31;20171;-66
2023/04/02 07:23:28;;;;;;;1.75;1.50;;;;;;;11.48;100.00;97916.88;4485607;31;20180;-67
2023/04/02 07:25:56;;;;;;;1.85;1.45;;;;;;;11.78;100.00;97942.59;4485358;31;20092;-67
2023/04/02 07:28:24;;;;;;;2.10;1.40;;;;;;;11.68;100.00;97929.66;4485552;31;20151;-66
2023/04/02 07:30:51;;;;;;;2.08;1.65;;;;;;;12.01;100.00;97927.03;4485550;32;20169;-67
2023/04/02 07:33:21;;;;;;;2.53;1.67;;;;;;;12.12;100.00;97929.28;4485155;31;20175;-67
2023/04/02 07:35:52;;;;;;;1.65;1.40;;;;;;;12.20;100.00;97937.16;4485549;32;20115;-66
2023/04/02 07:38:20;;;;;;;2.10;1.87;;;;;;;12.25;100.00;97929.59;4485227;31;20089;-67
2023/04/02 07:40:48;;;;;;;2.15;1.73;;;;;;;12.45;100.00;97929.22;4485389;32;20160;-67
2023/04/02 07:43:15;;;;;;;1.73;1.40;;;;;;;12.89;100.00;97936.56;4483952;32;20132;-66
2023/04/02 07:45:42;;;;;;;1.67;1.50;;;;;;;12.71;100.00;97951.78;4485409;31;20103;-67
2023/04/02 07:48:11;;;;;;;2.17;1.42;;;;;;;12.35;100.00;97933.84;4485330;32;20127;-66
2023/04/02 07:50:39;;;;;;;2.37;1.77;;;;;;;12.34;100.00;97933.03;4485230;31;20165;-66
2023/04/02 07:53:08;;;;;;;2.95;1.85;;;;;;;12.53;100.00;97934.41;4485107;32;20104;-67
2023/04/02 07:55:35;;;;;;;2.75;2.05;;;;;;;12.64;100.00;97937.66;4485222;31;20116;-66
2023/04/02 07:58:03;;;;;;;1.90;1.60;;;;;;;11.99;100.00;97952.63;4485400;32;20397;-66
2023/04/02 08:00:31;;;;;;;2.20;1.70;;;;;;;11.96;100.00;97937.19;4485026;31;20469;-66
2023/04/02 08:02:58;;;;;;;2.15;1.95;;;;;;;11.98;100.00;97945.75;4485029;31;20126;-66
2023/04/02 08:05:26;;;;;;;2.10;1.75;;;;;;;12.40;100.00;97942.84;4485111;31;20092;-66
2023/04/02 08:07:54;;;;;;;2.60;1.95;;;;;;;12.31;100.00;97948.28;4485525;31;20100;-67
2023/04/02 08:10:22;;;;;;;2.08;1.80;;;;;;;12.58;100.00;97941.78;4485038;31;20089;-67
2023/04/02 08:12:50;;;;;;;1.50;1.30;;;;;;;12.98;100.00;97965.47;4484992;31;20624;-67
2023/04/02 08:15:17;;;;;;;3.05;1.70;;;;;;;13.22;100.00;97953.97;4484910;31;20465;-67
2023/04/02 08:17:45;;;;;;;2.37;1.70;;;;;;;12.82;100.00;97959.25;4484984;32;20541;-66
2023/04/02 08:20:18;;;;;;;2.33;1.80;;;;;;;12.79;100.00;97964.88;4484852;31;20085;-67
2023/04/02 08:22:46;;;;;;;2.92;1.92;;;;;;;12.68;100.00;97963.44;4484863;31;20159;-66
2023/04/02 08:25:14;;;;;;;2.78;2.00;;;;;;;12.51;100.00;97970.56;4484889;31;20096;-66
2023/04/02 08:27:41;;;;;;;8.00;2.25;;;;;;;12.69;100.00;97961.66;4483614;32;20132;-67
2023/04/02 08:30:11;;;;;;;3.47;2.30;;;;;;;12.62;100.00;97966.75;4484828;31;20096;-67
2023/04/02 08:32:41;;;;;;;2.10;1.90;;;;;;;12.83;100.00;97979.31;4485035;31;20088;-67
2023/04/02 08:35:11;;;;;;;1.90;1.80;;;;;;;13.03;100.00;97977.06;4484978;31;20512;-67
2023/04/02 08:37:38;;;;;;;3.28;2.12;;;;;;;12.76;100.00;97978.34;4485020;32;20513;-67
2023/04/02 08:40:07;;;;;;;3.08;2.20;;;;;;;12.65;100.00;97982.16;4484807;31;20462;-67
2023/04/02 08:43:16;;;;;;;5.37;2.17;;;;;;;12.92;100.00;97983.53;4484845;31;20152;-67
2023/04/02 08:45:50;;;;;;;3.72;2.10;;;;;;;12.63;100.00;97991.19;4435607;32;20159;-67
2023/04/02 08:48:17;;;;;;;;;;;;;;;12.72;100.00;97993.66;4436066;32;20104;-66
2023/04/02 08:50:45;;;;;;;2.75;2.40;;;;;;;12.83;100.00;97997.72;4422817;32;19987;-66
2023/04/02 08:53:17;;;;;;;3.08;2.50;;;;;;;12.59;100.00;98004.69;4435496;32;20097;-67
2023/04/02 08:55:50;;;;;;;3.85;2.58;;;;;;;12.65;100.00;98002.38;4435530;32;20104;-67
2023/04/02 08:58:32;;;;;;;2.70;2.28;;;;;;;13.00;100.00;98008.16;4435699;32;20578;-67
2023/04/02 09:01:01;;;;;;;3.20;2.05;;;;;;;13.27;100.00;98017.41;4435761;32;20161;-67
2023/04/02 09:03:34;;;;;;;5.35;2.20;;;;;;;13.07;100.00;98014.38;4422631;32;20512;-67
2023/04/02 09:06:02;;;;;;;5.20;2.60;;;;;;;12.86;100.00;98013.13;4422953;32;20710;-67
2023/04/02 09:08:31;;;;;;;4.50;2.20;;;;;;;12.85;100.00;98008.88;4435321;32;20196;-67
2023/04/02 09:11:20;;;;;;;2.70;2.47;;;;;;;13.01;100.00;98009.81;4432500;32;20162;-67
2023/04/02 09:13:54;;;;;;;3.20;2.47;;;;;;;13.25;100.00;97996.53;4422848;32;20209;-67
2023/04/02 09:17:04;;;;;;;3.90;3.03;;;;;;;12.79;100.00;98001.66;4435400;32;20193;-67
2023/04/02 09:19:37;;;;;;;2.83;2.53;;;;;;;13.07;100.00;97998.59;4433087;32;20113;-67
2023/04/02 09:22:20;;;;;;;3.28;2.58;;;;;;;13.44;100.00;97997.09;4450785;32;20372;-67
2023/04/02 09:24:59;;;;;;;2.67;2.22;;;;;;;13.36;100.00;97995.34;4484467;31;20202;-66
2023/04/02 09:27:34;;;;;;;1.75;1.62;;;;;;;13.49;100.00;98000.03;4484438;31;20571;-67
2023/04/02 09:30:05;;;;;;;3.15;2.42;;;;;;;13.55;100.00;98009.88;4484371;32;20638;-67
2023/04/02 09:32:41;;;;;;;3.55;2.28;;;;;;;13.56;100.00;97995.69;4469920;32;20096;-67
2023/04/02 09:35:14;;;;;;;2.70;2.30;;;;;;;13.63;100.00;98007.16;4483436;32;20126;-66
2023/04/02 09:38:26;;;;;;;2.42;2.05;;;;;;;13.46;100.00;98010.91;4489654;31;20427;-67
2023/04/02 09:41:02;;;;;;;2.42;1.90;;;;;;;13.20;100.00;98014.66;4489409;31;20200;-67
2023/04/02 09:43:37;;;;;;;2.10;1.83;;;;;;;13.18;100.00;98024.50;4488173;32;20092;-67
2023/04/02 09:46:17;;;;;;;2.25;1.85;;;;;;;13.31;100.00;98022.13;4489407;31;20165;-67
2023/04/02 09:48:59;;;;;;;3.33;2.30;;;;;;;13.66;100.00;98025.25;4488174;32;20096;-67
2023/04/02 09:51:33;;;;;;;2.58;2.33;;;;;;;13.44;100.00;98018.16;4487943;32;20107;-67
2023/04/02 09:54:03;;;;;;;4.15;2.40;;;;;;;13.26;100.00;98019.22;4489300;31;20088;-66
2023/04/02 09:56:35;;;;;;;3.72;2.30;;;;;;;13.38;100.00;98024.09;4489194;31;20114;-67
2023/04/02 09:59:11;;;;;;;3.80;2.40;;;;;;;13.11;100.00;98027.00;4489288;31;20157;-66
2023/04/02 10:02:04;;;;;;;2.87;2.35;;;;;;;12.85;100.00;98024.63;4489218;31;20104;-67
2023/04/02 10:04:46;;;;;;;2.67;2.30;;;;;;;13.01;100.00;98028.22;4488830;32;20114;-67
2023/04/02 10:07:35;;;;;;;2.95;2.40;;;;;;;13.19;100.00;98023.53;4489141;31;20144;-67
2023/04/02 10:10:25;;;;;;;3.45;2.60;;;;;;;13.53;100.00;98032.88;4489011;31;20465;-67
2023/04/02 10:13:03;;;;;;;4.05;2.90;;;;;;;13.63;100.00;98028.22;4475170;32;20121;-67
2023/04/02 10:15:35;;;;;;;2.85;2.50;;;;;;;13.69;100.00;98024.06;4474749;32;20118;-67
2023/04/02 10:18:26;;;;;;;2.30;2.08;;;;;;;13.59;100.00;98012.97;4487766;32;20092;-67
2023/04/02 10:20:55;;;;;;;2.10;1.90;;;;;;;13.59;100.00;98018.22;4482966;32;20159;-67
2023/04/02 10:23:26;;;;;;;3.10;2.78;;;;;;;13.44;100.00;98026.87;4487790;32;20172;-67
2023/04/02 10:26:10;;;;;;;3.10;2.40;;;;;;;13.57;100.00;98021.03;4487722;32;20079;-67
2023/04/02 10:28:59;;;;;;;2.90;2.60;;;;;;;13.67;100.00;98015.50;4488781;32;20131;-67
2023/04/02 10:31:52;;;;;;;2.58;2.28;;;;;;;13.87;100.00;98015.88;4488701;31;20092;-67
2023/04/02 10:34:21;;;;;;;4.15;2.78;;;;;;;13.90;100.00;98017.31;4439068;32;20152;-67
2023/04/02 10:36:59;;;;;;;3.30;2.83;;;;;;;14.09;100.00;98013.38;4439153;32;20101;-67
2023/04/02 10:39:30;;;;;;;3.15;2.60;;;;;;;13.97;100.00;98028.78;4439378;32;20120;-67
2023/04/02 10:42:43;;;;;;;2.53;2.20;;;;;;;14.33;100.00;98014.97;4439311;32;20184;-67
2023/04/02 10:45:24;;;;;;;3.72;2.80;;;;;;;14.24;100.00;98018.69;4439186;32;20125;-67
2023/04/02 10:47:54;;;;;;;3.30;2.22;;;;;;;14.02;100.00;98018.56;4425291;32;20098;-67
2023/04/02 10:50:28;;;;;;;3.22;2.08;;;;;;;14.01;100.00;98020.34;4436466;32;20117;-67
2023/04/02 10:53:10;;;;;;;2.15;1.98;;;;;;;14.48;100.00;98015.00;4436183;32;20174;-67
2023/04/02 10:55:42;;;;;;;3.45;2.70;;;;;;;14.21;99.02;98022.50;4423994;32;20094;-67
2023/04/02 10:58:19;;;;;;;2.90;2.30;;;;;;;14.39;97.82;98024.81;4423800;32;20475;-67
2023/04/02 11:00:47;;;;;;;2.17;1.98;;;;;;;14.34;98.06;98020.06;4423915;32;20093;-67
2023/04/02 11:03:17;;;;;;;3.80;2.08;;;;;;;14.52;97.22;98024.19;4423488;32;20127;-67
2023/04/02 11:05:47;;;;;;;2.65;2.00;;;;;;;14.50;99.46;98034.91;4436675;32;20097;-67
2023/04/02 11:08:17;;;;;;;2.40;2.10;;;;;;;14.06;99.65;98027.72;4423660;32;20257;-67
2023/04/02 11:11:11;;;;;;;4.75;1.95;;;;;;;14.10;100.00;98025.56;4445205;32;20100;-67
2023/04/02 11:13:48;;;;;;;3.20;2.30;;;;;;;14.13;100.00;98023.38;4485456;31;20075;-66
2023/04/02 11:16:16;;;;;;;3.10;2.25;;;;;;;13.92;100.00;98024.06;4485402;32;20252;-67
2023/04/02 11:19:15;;;;;;;4.37;2.67;;;;;;;13.73;100.00;98020.09;4485564;31;20092;-67
2023/04/02 11:21:46;;;;;;;2.30;2.10;;;;;;;13.75;100.00;98027.81;4485177;31;20112;-67
2023/04/02 11:24:31;;;;;;;3.17;2.20;;;;;;;13.56;100.00;98022.00;4485593;31;20088;-67
2023/04/02 11:27:13;;;;;;;2.83;2.47;;;;;;;13.23;100.00;98016.09;4485549;31;20108;-67
2023/04/02 11:29:47;;;;;;;2.78;2.20;;;;;;;13.23;100.00;98022.19;4485325;31;20085;-67
2023/04/02 11:32:20;;;;;;;3.45;2.58;;;;;;;13.41;100.00;98007.97;4484018;32;20164;-67
2023/04/02 11:34:47;;;;;;;3.17;2.57;;;;;;;13.66;100.00;98008.62;4485422;31;20406;-67
2023/04/02 11:37:43;;;;;;;3.03;2.28;;;;;;;13.97;100.00;98015.62;4485311;31;20153;-67
2023/04/02 11:40:10;;;;;;;3.28;2.30;;;;;;;13.80;100.00;98007.84;4484023;32;20172;-67
2023/04/02 11:42:46;;;;;;;4.70;2.30;;;;;;;13.99;100.00;98005.75;4485513;31;20108;-67
2023/04/02 11:45:22;;;;;;;2.85;2.40;;;;;;;14.04;100.00;98007.84;4484136;32;20266;-67
2023/04/02 11:47:59;;;;;;;4.00;3.08;;;;;;;14.18;100.00;97999.94;4485226;31;20122;-67
2023/04/02 11:50:32;;;;;;;3.90;2.62;;;;;;;14.25;100.00;98010.63;4485254;31;20502;-67
2023/04/02 11:53:05;;;;;;;2.90;2.13;;;;;;;14.29;96.60;98016.34;4471218;32;20112;-67
2023/04/02 11:55:33;;;;;;;4.18;2.42;;;;;;;14.09;97.72;98018.66;4485266;31;20107;-67
2023/04/02 11:58:10;;;;;;;3.40;2.35;;;;;;;14.11;100.00;98014.03;4483658;32;20168;-67
2023/04/02 12:01:13;;;;;;;3.33;2.35;;;;;;;14.11;95.63;98014.03;4483907;32;20118;-67
2023/04/02 12:03:50;;;;;;;3.55;2.47;;;;;;;14.26;94.54;98011.41;4483771;32;20101;-67
2023/04/02 12:06:47;;;;;;;3.12;2.55;;;;;;;14.36;94.23;98007.53;4485155;31;20827;-67
2023/04/02 12:09:35;;;;;;;2.80;2.30;;;;;;;14.34;93.32;98012.16;4485090;31;20506;-67